sensor_id;sensor_type;location;lat;lon;timestamp;P1;durP1;ratioP1;P2;durP2;ratioP2
11000;SDS011;5553;48.506;8.870;2022-07-29T00:00:28;13.57;;;12.17;;
11000;SDS011;5553;48.506;8.870;2022-07-29T00:02:57;15.00;;;13.57;;
11000;SDS011;5553;48.506;8.870;2022-07-29T00:05:25;17.67;;;12.50;;
11000;SDS011;5553;48.506;8.870;2022-07-29T00:07:54;17.07;;;12.17;;
11000;SDS011;5553;48.506;8.870;2022-07-29T00:10:22;16.30;;;14.57;;
11000;SDS011;5553;48.506;8.870;2022-07-29T00:12:53;15.00;;;13.60;;
11000;SDS011;5553;48.506;8.870;2022-07-29T00:15:21;15.07;;;13.50;;
11000;SDS011;5553;48.506;8.870;2022-07-29T00:17:49;16.10;;;14.10;;
11000;SDS011;5553;48.506;8.870;2022-07-29T00:20:18;14.03;;;12.53;;
11000;SDS011;5553;48.506;8.870;2022-07-29T00:22:46;15.67;;;14.17;;
11000;SDS011;5553;48.506;8.870;2022-07-29T00:25:14;16.30;;;14.10;;
11000;SDS011;5553;48.506;8.870;2022-07-29T00:27:43;14.73;;;13.33;;
11000;SDS011;5553;48.506;8.870;2022-07-29T00:30:14;15.10;;;13.70;;
11000;SDS011;5553;48.506;8.870;2022-07-29T00:32:42;15.70;;;13.70;;
11000;SDS011;5553;48.506;8.870;2022-07-29T00:35:10;14.17;;;12.67;;
11000;SDS011;5553;48.506;8.870;2022-07-29T00:37:51;15.47;;;13.17;;
11000;SDS011;5553;48.506;8.870;2022-07-29T00:40:19;14.50;;;13.10;;
11000;SDS011;5553;48.506;8.870;2022-07-29T00:42:48;14.63;;;13.10;;
11000;SDS011;5553;48.506;8.870;2022-07-29T00:45:20;17.83;;;15.20;;
11000;SDS011;5553;48.506;8.870;2022-07-29T00:47:49;16.20;;;14.60;;
11000;SDS011;5553;48.506;8.870;2022-07-29T00:50:18;15.90;;;14.20;;
11000;SDS011;5553;48.506;8.870;2022-07-29T00:52:46;16.80;;;14.40;;
11000;SDS011;5553;48.506;8.870;2022-07-29T00:55:15;19.63;;;14.53;;
11000;SDS011;5553;48.506;8.870;2022-07-29T00:57:44;15.53;;;12.90;;
11000;SDS011;5553;48.506;8.870;2022-07-29T01:00:14;14.80;;;13.30;;
11000;SDS011;5553;48.506;8.870;2022-07-29T01:02:47;15.57;;;13.97;;
11000;SDS011;5553;48.506;8.870;2022-07-29T01:05:16;16.13;;;14.43;;
11000;SDS011;5553;48.506;8.870;2022-07-29T01:07:47;17.13;;;12.87;;
11000;SDS011;5553;48.506;8.870;2022-07-29T01:10:19;17.63;;;13.97;;
11000;SDS011;5553;48.506;8.870;2022-07-29T01:12:49;14.40;;;12.77;;
11000;SDS011;5553;48.506;8.870;2022-07-29T01:15:19;16.37;;;13.60;;
11000;SDS011;5553;48.506;8.870;2022-07-29T01:17:51;15.13;;;13.47;;
11000;SDS011;5553;48.506;8.870;2022-07-29T01:20:26;15.03;;;13.47;;
11000;SDS011;5553;48.506;8.870;2022-07-29T01:23:16;13.47;;;12.07;;
11000;SDS011;5553;48.506;8.870;2022-07-29T01:26:12;15.30;;;12.27;;
11000;SDS011;5553;48.506;8.870;2022-07-29T01:29:10;15.03;;;12.33;;
11000;SDS011;5553;48.506;8.870;2022-07-29T01:31:42;15.93;;;12.70;;
11000;SDS011;5553;48.506;8.870;2022-07-29T01:34:21;13.80;;;12.13;;
11000;SDS011;5553;48.506;8.870;2022-07-29T01:36:55;15.20;;;13.80;;
11000;SDS011;5553;48.506;8.870;2022-07-29T01:39:30;14.63;;;12.50;;
11000;SDS011;5553;48.506;8.870;2022-07-29T01:42:02;15.17;;;13.43;;
11000;SDS011;5553;48.506;8.870;2022-07-29T01:44:41;14.70;;;13.30;;
11000;SDS011;5553;48.506;8.870;2022-07-29T01:47:15;15.83;;;14.30;;
11000;SDS011;5553;48.506;8.870;2022-07-29T01:49:49;15.27;;;13.43;;
11000;SDS011;5553;48.506;8.870;2022-07-29T01:52:20;15.67;;;14.00;;
11000;SDS011;5553;48.506;8.870;2022-07-29T01:54:53;15.00;;;13.23;;
11000;SDS011;5553;48.506;8.870;2022-07-29T01:57:26;15.40;;;13.80;;
11000;SDS011;5553;48.506;8.870;2022-07-29T02:00:02;17.27;;;13.70;;
11000;SDS011;5553;48.506;8.870;2022-07-29T02:02:32;14.90;;;13.40;;
11000;SDS011;5553;48.506;8.870;2022-07-29T02:05:03;14.63;;;12.40;;
11000;SDS011;5553;48.506;8.870;2022-07-29T02:07:35;13.73;;;12.33;;
11000;SDS011;5553;48.506;8.870;2022-07-29T02:10:05;13.57;;;12.20;;
11000;SDS011;5553;48.506;8.870;2022-07-29T02:12:35;13.30;;;12.00;;
11000;SDS011;5553;48.506;8.870;2022-07-29T02:15:08;13.10;;;11.73;;
11000;SDS011;5553;48.506;8.870;2022-07-29T02:17:39;12.90;;;11.10;;
11000;SDS011;5553;48.506;8.870;2022-07-29T02:20:10;13.43;;;12.03;;
11000;SDS011;5553;48.506;8.870;2022-07-29T02:22:40;12.10;;;11.00;;
11000;SDS011;5553;48.506;8.870;2022-07-29T02:25:10;12.70;;;11.43;;
11000;SDS011;5553;48.506;8.870;2022-07-29T02:27:40;13.70;;;12.30;;
11000;SDS011;5553;48.506;8.870;2022-07-29T02:30:13;11.40;;;10.30;;
11000;SDS011;5553;48.506;8.870;2022-07-29T02:32:41;12.70;;;11.50;;
11000;SDS011;5553;48.506;8.870;2022-07-29T02:35:12;12.63;;;11.40;;
11000;SDS011;5553;48.506;8.870;2022-07-29T02:37:43;12.57;;;11.40;;
11000;SDS011;5553;48.506;8.870;2022-07-29T02:40:34;11.80;;;10.60;;
11000;SDS011;5553;48.506;8.870;2022-07-29T02:43:05;11.93;;;10.83;;
11000;SDS011;5553;48.506;8.870;2022-07-29T02:45:38;13.17;;;11.90;;
11000;SDS011;5553;48.506;8.870;2022-07-29T02:48:09;14.40;;;11.47;;
11000;SDS011;5553;48.506;8.870;2022-07-29T02:50:42;10.30;;;9.40;;
11000;SDS011;5553;48.506;8.870;2022-07-29T02:53:17;10.90;;;9.80;;
11000;SDS011;5553;48.506;8.870;2022-07-29T02:55:48;11.57;;;10.47;;
11000;SDS011;5553;48.506;8.870;2022-07-29T02:58:25;10.73;;;9.73;;
11000;SDS011;5553;48.506;8.870;2022-07-29T03:00:59;10.90;;;10.00;;
11000;SDS011;5553;48.506;8.870;2022-07-29T03:03:31;11.20;;;10.20;;
11000;SDS011;5553;48.506;8.870;2022-07-29T03:06:02;12.30;;;11.20;;
11000;SDS011;5553;48.506;8.870;2022-07-29T03:08:32;12.67;;;11.37;;
11000;SDS011;5553;48.506;8.870;2022-07-29T03:11:02;11.00;;;9.90;;
11000;SDS011;5553;48.506;8.870;2022-07-29T03:13:32;13.10;;;11.53;;
11000;SDS011;5553;48.506;8.870;2022-07-29T03:16:03;11.77;;;10.77;;
11000;SDS011;5553;48.506;8.870;2022-07-29T03:18:33;12.60;;;11.40;;
11000;SDS011;5553;48.506;8.870;2022-07-29T03:21:02;10.90;;;9.90;;
11000;SDS011;5553;48.506;8.870;2022-07-29T03:23:31;10.50;;;9.63;;
11000;SDS011;5553;48.506;8.870;2022-07-29T03:25:59;11.50;;;10.50;;
11000;SDS011;5553;48.506;8.870;2022-07-29T03:28:28;11.23;;;10.20;;
11000;SDS011;5553;48.506;8.870;2022-07-29T03:30:57;11.77;;;10.63;;
11000;SDS011;5553;48.506;8.870;2022-07-29T03:33:28;11.13;;;10.13;;
11000;SDS011;5553;48.506;8.870;2022-07-29T03:35:56;11.03;;;9.83;;
11000;SDS011;5553;48.506;8.870;2022-07-29T03:38:27;11.67;;;10.57;;
11000;SDS011;5553;48.506;8.870;2022-07-29T03:40:58;11.50;;;10.50;;
11000;SDS011;5553;48.506;8.870;2022-07-29T03:43:31;11.00;;;10.00;;
11000;SDS011;5553;48.506;8.870;2022-07-29T03:46:02;11.43;;;10.33;;
11000;SDS011;5553;48.506;8.870;2022-07-29T03:48:39;14.67;;;11.67;;
11000;SDS011;5553;48.506;8.870;2022-07-29T03:51:13;11.40;;;10.27;;
11000;SDS011;5553;48.506;8.870;2022-07-29T03:53:41;12.30;;;10.83;;
11000;SDS011;5553;48.506;8.870;2022-07-29T03:56:10;12.70;;;11.43;;
11000;SDS011;5553;48.506;8.870;2022-07-29T03:58:43;11.63;;;10.30;;
11000;SDS011;5553;48.506;8.870;2022-07-29T04:01:12;11.77;;;10.70;;
11000;SDS011;5553;48.506;8.870;2022-07-29T04:03:45;11.63;;;10.53;;
11000;SDS011;5553;48.506;8.870;2022-07-29T04:06:13;12.60;;;10.80;;
11000;SDS011;5553;48.506;8.870;2022-07-29T04:08:42;11.30;;;10.20;;
11000;SDS011;5553;48.506;8.870;2022-07-29T04:11:10;12.20;;;10.90;;
11000;SDS011;5553;48.506;8.870;2022-07-29T04:13:38;14.53;;;11.70;;
11000;SDS011;5553;48.506;8.870;2022-07-29T04:16:07;12.50;;;11.30;;
11000;SDS011;5553;48.506;8.870;2022-07-29T04:18:35;10.90;;;9.80;;
11000;SDS011;5553;48.506;8.870;2022-07-29T04:21:06;12.57;;;10.77;;
11000;SDS011;5553;48.506;8.870;2022-07-29T04:23:34;13.20;;;11.80;;
11000;SDS011;5553;48.506;8.870;2022-07-29T04:26:02;11.30;;;10.30;;
11000;SDS011;5553;48.506;8.870;2022-07-29T04:28:31;12.27;;;10.80;;
11000;SDS011;5553;48.506;8.870;2022-07-29T04:30:59;12.80;;;11.67;;
11000;SDS011;5553;48.506;8.870;2022-07-29T04:33:27;12.10;;;11.00;;
11000;SDS011;5553;48.506;8.870;2022-07-29T04:35:56;10.97;;;10.00;;
11000;SDS011;5553;48.506;8.870;2022-07-29T04:38:26;11.63;;;10.43;;
11000;SDS011;5553;48.506;8.870;2022-07-29T04:40:55;11.70;;;10.60;;
11000;SDS011;5553;48.506;8.870;2022-07-29T04:43:23;11.80;;;10.70;;
11000;SDS011;5553;48.506;8.870;2022-07-29T04:45:51;13.07;;;11.63;;
11000;SDS011;5553;48.506;8.870;2022-07-29T04:48:20;14.70;;;11.50;;
11000;SDS011;5553;48.506;8.870;2022-07-29T04:50:48;12.57;;;11.33;;
11000;SDS011;5553;48.506;8.870;2022-07-29T04:53:17;12.50;;;11.23;;
11000;SDS011;5553;48.506;8.870;2022-07-29T04:55:47;11.00;;;9.93;;
11000;SDS011;5553;48.506;8.870;2022-07-29T04:58:16;12.93;;;11.77;;
11000;SDS011;5553;48.506;8.870;2022-07-29T05:00:44;11.93;;;10.80;;
11000;SDS011;5553;48.506;8.870;2022-07-29T05:03:13;13.63;;;12.10;;
11000;SDS011;5553;48.506;8.870;2022-07-29T05:05:41;12.27;;;11.10;;
11000;SDS011;5553;48.506;8.870;2022-07-29T05:08:09;16.10;;;12.90;;
11000;SDS011;5553;48.506;8.870;2022-07-29T05:10:38;11.40;;;10.30;;
11000;SDS011;5553;48.506;8.870;2022-07-29T05:13:09;15.17;;;12.33;;
11000;SDS011;5553;48.506;8.870;2022-07-29T05:15:37;13.00;;;11.80;;
11000;SDS011;5553;48.506;8.870;2022-07-29T05:18:05;12.07;;;10.93;;
11000;SDS011;5553;48.506;8.870;2022-07-29T05:20:34;12.73;;;11.53;;
11000;SDS011;5553;48.506;8.870;2022-07-29T05:23:02;15.27;;;11.70;;
11000;SDS011;5553;48.506;8.870;2022-07-29T05:25:31;11.97;;;10.97;;
11000;SDS011;5553;48.506;8.870;2022-07-29T05:27:59;12.83;;;11.30;;
11000;SDS011;5553;48.506;8.870;2022-07-29T05:30:30;11.40;;;10.20;;
11000;SDS011;5553;48.506;8.870;2022-07-29T05:32:58;10.83;;;9.83;;
11000;SDS011;5553;48.506;8.870;2022-07-29T05:35:26;12.50;;;10.67;;
11000;SDS011;5553;48.506;8.870;2022-07-29T05:37:55;11.27;;;10.23;;
11000;SDS011;5553;48.506;8.870;2022-07-29T05:40:23;12.83;;;9.40;;
11000;SDS011;5553;48.506;8.870;2022-07-29T05:42:51;10.83;;;9.83;;
11000;SDS011;5553;48.506;8.870;2022-07-29T05:45:20;11.10;;;9.27;;
11000;SDS011;5553;48.506;8.870;2022-07-29T05:47:51;10.53;;;9.43;;
11000;SDS011;5553;48.506;8.870;2022-07-29T05:50:19;11.63;;;8.83;;
11000;SDS011;5553;48.506;8.870;2022-07-29T05:52:47;9.53;;;8.63;;
11000;SDS011;5553;48.506;8.870;2022-07-29T05:55:16;13.90;;;9.67;;
11000;SDS011;5553;48.506;8.870;2022-07-29T05:57:44;9.27;;;8.27;;
11000;SDS011;5553;48.506;8.870;2022-07-29T06:00:12;9.80;;;8.80;;
11000;SDS011;5553;48.506;8.870;2022-07-29T06:02:41;10.30;;;9.40;;
11000;SDS011;5553;48.506;8.870;2022-07-29T06:05:12;9.73;;;8.70;;
11000;SDS011;5553;48.506;8.870;2022-07-29T06:07:40;9.50;;;8.50;;
11000;SDS011;5553;48.506;8.870;2022-07-29T06:10:08;8.67;;;7.97;;
11000;SDS011;5553;48.506;8.870;2022-07-29T06:12:37;8.40;;;7.70;;
11000;SDS011;5553;48.506;8.870;2022-07-29T06:15:05;8.03;;;7.33;;
11000;SDS011;5553;48.506;8.870;2022-07-29T06:17:34;11.53;;;9.07;;
11000;SDS011;5553;48.506;8.870;2022-07-29T06:20:03;9.93;;;8.20;;
11000;SDS011;5553;48.506;8.870;2022-07-29T06:22:35;9.03;;;8.23;;
11000;SDS011;5553;48.506;8.870;2022-07-29T06:25:03;8.23;;;7.53;;
11000;SDS011;5553;48.506;8.870;2022-07-29T06:27:32;9.67;;;8.23;;
11000;SDS011;5553;48.506;8.870;2022-07-29T06:30:01;10.30;;;7.90;;
11000;SDS011;5553;48.506;8.870;2022-07-29T06:32:31;8.40;;;7.50;;
11000;SDS011;5553;48.506;8.870;2022-07-29T06:34:59;8.10;;;7.30;;
11000;SDS011;5553;48.506;8.870;2022-07-29T06:37:28;8.63;;;7.70;;
11000;SDS011;5553;48.506;8.870;2022-07-29T06:39:59;8.40;;;7.30;;
11000;SDS011;5553;48.506;8.870;2022-07-29T06:42:41;8.27;;;7.50;;
11000;SDS011;5553;48.506;8.870;2022-07-29T06:45:10;8.30;;;7.10;;
11000;SDS011;5553;48.506;8.870;2022-07-29T06:47:38;9.90;;;7.47;;
11000;SDS011;5553;48.506;8.870;2022-07-29T06:50:07;7.87;;;7.27;;
11000;SDS011;5553;48.506;8.870;2022-07-29T06:52:37;8.13;;;7.43;;
11000;SDS011;5553;48.506;8.870;2022-07-29T06:55:09;8.60;;;7.27;;
11000;SDS011;5553;48.506;8.870;2022-07-29T06:57:37;8.33;;;7.50;;
11000;SDS011;5553;48.506;8.870;2022-07-29T07:00:06;7.03;;;6.53;;
11000;SDS011;5553;48.506;8.870;2022-07-29T07:02:35;8.40;;;7.40;;
11000;SDS011;5553;48.506;8.870;2022-07-29T07:05:04;7.43;;;6.67;;
11000;SDS011;5553;48.506;8.870;2022-07-29T07:07:33;8.90;;;7.30;;
11000;SDS011;5553;48.506;8.870;2022-07-29T07:10:02;7.23;;;6.50;;
11000;SDS011;5553;48.506;8.870;2022-07-29T07:12:33;6.87;;;5.97;;
11000;SDS011;5553;48.506;8.870;2022-07-29T07:15:02;7.77;;;7.07;;
11000;SDS011;5553;48.506;8.870;2022-07-29T07:17:31;8.40;;;7.53;;
11000;SDS011;5553;48.506;8.870;2022-07-29T07:19:59;7.10;;;6.50;;
11000;SDS011;5553;48.506;8.870;2022-07-29T07:22:28;8.10;;;7.00;;
11000;SDS011;5553;48.506;8.870;2022-07-29T07:24:56;6.90;;;6.30;;
11000;SDS011;5553;48.506;8.870;2022-07-29T07:27:24;7.10;;;6.50;;
11000;SDS011;5553;48.506;8.870;2022-07-29T07:29:55;7.53;;;6.83;;
11000;SDS011;5553;48.506;8.870;2022-07-29T07:32:24;8.13;;;6.60;;
11000;SDS011;5553;48.506;8.870;2022-07-29T07:34:52;7.37;;;6.60;;
11000;SDS011;5553;48.506;8.870;2022-07-29T07:37:20;11.53;;;6.20;;
11000;SDS011;5553;48.506;8.870;2022-07-29T07:39:49;12.73;;;6.90;;
11000;SDS011;5553;48.506;8.870;2022-07-29T07:42:18;6.87;;;6.37;;
11000;SDS011;5553;48.506;8.870;2022-07-29T07:44:46;7.17;;;6.57;;
11000;SDS011;5553;48.506;8.870;2022-07-29T07:47:17;7.43;;;6.73;;
11000;SDS011;5553;48.506;8.870;2022-07-29T07:49:48;7.83;;;6.90;;
11000;SDS011;5553;48.506;8.870;2022-07-29T07:52:17;7.23;;;6.63;;
11000;SDS011;5553;48.506;8.870;2022-07-29T07:54:47;7.60;;;6.90;;
11000;SDS011;5553;48.506;8.870;2022-07-29T07:57:16;7.33;;;6.73;;
11000;SDS011;5553;48.506;8.870;2022-07-29T07:59:44;7.63;;;6.87;;
11000;SDS011;5553;48.506;8.870;2022-07-29T08:02:13;7.80;;;7.10;;
11000;SDS011;5553;48.506;8.870;2022-07-29T08:04:43;7.80;;;7.20;;
11000;SDS011;5553;48.506;8.870;2022-07-29T08:07:12;8.43;;;7.57;;
11000;SDS011;5553;48.506;8.870;2022-07-29T08:09:40;8.50;;;7.13;;
11000;SDS011;5553;48.506;8.870;2022-07-29T08:12:08;8.07;;;7.27;;
11000;SDS011;5553;48.506;8.870;2022-07-29T08:14:37;10.97;;;7.10;;
11000;SDS011;5553;48.506;8.870;2022-07-29T08:17:06;7.50;;;6.90;;
11000;SDS011;5553;48.506;8.870;2022-07-29T08:19:35;7.93;;;6.40;;
11000;SDS011;5553;48.506;8.870;2022-07-29T08:22:06;9.43;;;6.70;;
11000;SDS011;5553;48.506;8.870;2022-07-29T08:24:34;7.93;;;7.13;;
11000;SDS011;5553;48.506;8.870;2022-07-29T08:27:17;7.10;;;6.50;;
11000;SDS011;5553;48.506;8.870;2022-07-29T08:29:46;10.77;;;6.97;;
11000;SDS011;5553;48.506;8.870;2022-07-29T08:35:04;6.77;;;6.27;;
11000;SDS011;5553;48.506;8.870;2022-07-29T08:37:38;7.13;;;6.23;;
11000;SDS011;5553;48.506;8.870;2022-07-29T08:40:07;6.90;;;5.90;;
11000;SDS011;5553;48.506;8.870;2022-07-29T08:42:36;6.43;;;5.83;;
11000;SDS011;5553;48.506;8.870;2022-07-29T08:45:05;7.13;;;6.53;;
11000;SDS011;5553;48.506;8.870;2022-07-29T08:47:34;7.13;;;6.00;;
11000;SDS011;5553;48.506;8.870;2022-07-29T08:50:05;6.97;;;6.37;;
11000;SDS011;5553;48.506;8.870;2022-07-29T08:52:38;8.37;;;6.20;;
11000;SDS011;5553;48.506;8.870;2022-07-29T08:55:09;7.07;;;6.37;;
11000;SDS011;5553;48.506;8.870;2022-07-29T08:57:38;7.10;;;6.40;;
11000;SDS011;5553;48.506;8.870;2022-07-29T09:00:07;7.37;;;6.67;;
11000;SDS011;5553;48.506;8.870;2022-07-29T09:02:38;9.70;;;6.17;;
11000;SDS011;5553;48.506;8.870;2022-07-29T09:05:09;6.80;;;6.20;;
11000;SDS011;5553;48.506;8.870;2022-07-29T09:07:40;6.03;;;5.63;;
11000;SDS011;5553;48.506;8.870;2022-07-29T09:10:12;8.40;;;6.23;;
11000;SDS011;5553;48.506;8.870;2022-07-29T09:12:41;6.40;;;5.80;;
11000;SDS011;5553;48.506;8.870;2022-07-29T09:15:09;11.83;;;6.50;;
11000;SDS011;5553;48.506;8.870;2022-07-29T09:17:41;7.40;;;6.70;;
11000;SDS011;5553;48.506;8.870;2022-07-29T09:20:12;11.03;;;7.93;;
11000;SDS011;5553;48.506;8.870;2022-07-29T09:22:44;7.30;;;6.60;;
11000;SDS011;5553;48.506;8.870;2022-07-29T09:25:14;7.27;;;6.43;;
11000;SDS011;5553;48.506;8.870;2022-07-29T09:28:05;7.63;;;6.93;;
11000;SDS011;5553;48.506;8.870;2022-07-29T09:30:34;7.23;;;6.50;;
11000;SDS011;5553;48.506;8.870;2022-07-29T09:33:03;6.60;;;6.03;;
11000;SDS011;5553;48.506;8.870;2022-07-29T09:35:31;10.10;;;6.37;;
11000;SDS011;5553;48.506;8.870;2022-07-29T09:38:11;7.07;;;6.47;;
11000;SDS011;5553;48.506;8.870;2022-07-29T09:40:40;9.43;;;6.70;;
11000;SDS011;5553;48.506;8.870;2022-07-29T09:43:09;6.97;;;6.37;;
11000;SDS011;5553;48.506;8.870;2022-07-29T09:45:38;7.40;;;6.70;;
11000;SDS011;5553;48.506;8.870;2022-07-29T09:48:13;7.53;;;6.93;;
11000;SDS011;5553;48.506;8.870;2022-07-29T09:50:43;7.03;;;6.50;;
11000;SDS011;5553;48.506;8.870;2022-07-29T09:53:29;9.43;;;7.30;;
11000;SDS011;5553;48.506;8.870;2022-07-29T09:55:58;7.90;;;7.17;;
11000;SDS011;5553;48.506;8.870;2022-07-29T09:58:27;6.60;;;6.10;;
11000;SDS011;5553;48.506;8.870;2022-07-29T10:00:55;7.80;;;7.00;;
11000;SDS011;5553;48.506;8.870;2022-07-29T10:03:24;7.30;;;6.60;;
11000;SDS011;5553;48.506;8.870;2022-07-29T10:06:06;6.83;;;6.23;;
11000;SDS011;5553;48.506;8.870;2022-07-29T10:08:41;6.40;;;5.90;;
11000;SDS011;5553;48.506;8.870;2022-07-29T10:11:10;7.53;;;6.70;;
11000;SDS011;5553;48.506;8.870;2022-07-29T10:13:40;7.47;;;6.77;;
11000;SDS011;5553;48.506;8.870;2022-07-29T10:16:09;6.53;;;5.70;;
11000;SDS011;5553;48.506;8.870;2022-07-29T10:18:38;6.43;;;5.87;;
11000;SDS011;5553;48.506;8.870;2022-07-29T10:21:08;6.13;;;5.63;;
11000;SDS011;5553;48.506;8.870;2022-07-29T10:23:37;6.93;;;6.23;;
11000;SDS011;5553;48.506;8.870;2022-07-29T10:26:10;6.60;;;6.00;;
11000;SDS011;5553;48.506;8.870;2022-07-29T10:28:39;5.90;;;5.30;;
11000;SDS011;5553;48.506;8.870;2022-07-29T10:31:08;7.37;;;6.70;;
11000;SDS011;5553;48.506;8.870;2022-07-29T10:33:46;7.00;;;6.40;;
11000;SDS011;5553;48.506;8.870;2022-07-29T10:36:26;6.50;;;6.00;;
11000;SDS011;5553;48.506;8.870;2022-07-29T10:39:10;7.37;;;6.20;;
11000;SDS011;5553;48.506;8.870;2022-07-29T10:41:50;7.57;;;6.00;;
11000;SDS011;5553;48.506;8.870;2022-07-29T10:44:39;6.10;;;5.60;;
11000;SDS011;5553;48.506;8.870;2022-07-29T10:47:16;6.13;;;5.63;;
11000;SDS011;5553;48.506;8.870;2022-07-29T10:49:57;6.23;;;5.73;;
11000;SDS011;5553;48.506;8.870;2022-07-29T10:55:34;7.80;;;5.50;;
11000;SDS011;5553;48.506;8.870;2022-07-29T10:58:10;6.30;;;5.50;;
11000;SDS011;5553;48.506;8.870;2022-07-29T11:00:40;7.03;;;4.80;;
11000;SDS011;5553;48.506;8.870;2022-07-29T11:03:08;6.70;;;6.10;;
11000;SDS011;5553;48.506;8.870;2022-07-29T11:05:51;5.87;;;5.30;;
11000;SDS011;5553;48.506;8.870;2022-07-29T11:08:24;7.20;;;4.70;;
11000;SDS011;5553;48.506;8.870;2022-07-29T11:14:08;6.37;;;5.77;;
11000;SDS011;5553;48.506;8.870;2022-07-29T11:19:28;6.70;;;6.10;;
11000;SDS011;5553;48.506;8.870;2022-07-29T11:21:57;6.60;;;6.00;;
11000;SDS011;5553;48.506;8.870;2022-07-29T11:24:26;5.20;;;4.73;;
11000;SDS011;5553;48.506;8.870;2022-07-29T11:27:10;4.83;;;4.20;;
11000;SDS011;5553;48.506;8.870;2022-07-29T11:29:49;4.87;;;4.57;;
11000;SDS011;5553;48.506;8.870;2022-07-29T11:32:19;4.90;;;4.50;;
11000;SDS011;5553;48.506;8.870;2022-07-29T11:34:48;5.77;;;5.00;;
11000;SDS011;5553;48.506;8.870;2022-07-29T11:37:20;5.10;;;4.70;;
11000;SDS011;5553;48.506;8.870;2022-07-29T11:42:45;5.40;;;4.90;;
11000;SDS011;5553;48.506;8.870;2022-07-29T11:45:17;4.80;;;4.40;;
11000;SDS011;5553;48.506;8.870;2022-07-29T11:47:52;5.20;;;4.80;;
11000;SDS011;5553;48.506;8.870;2022-07-29T11:50:26;6.13;;;5.53;;
11000;SDS011;5553;48.506;8.870;2022-07-29T11:53:01;5.53;;;5.13;;
11000;SDS011;5553;48.506;8.870;2022-07-29T11:55:31;7.00;;;6.40;;
11000;SDS011;5553;48.506;8.870;2022-07-29T11:58:00;7.93;;;6.10;;
11000;SDS011;5553;48.506;8.870;2022-07-29T12:00:33;6.70;;;5.73;;
11000;SDS011;5553;48.506;8.870;2022-07-29T12:03:04;6.60;;;5.93;;
11000;SDS011;5553;48.506;8.870;2022-07-29T12:05:34;7.53;;;6.53;;
11000;SDS011;5553;48.506;8.870;2022-07-29T12:08:05;8.00;;;7.00;;
11000;SDS011;5553;48.506;8.870;2022-07-29T12:10:38;5.70;;;5.30;;
11000;SDS011;5553;48.506;8.870;2022-07-29T12:13:07;6.30;;;5.60;;
11000;SDS011;5553;48.506;8.870;2022-07-29T12:15:38;6.37;;;5.77;;
11000;SDS011;5553;48.506;8.870;2022-07-29T12:18:12;7.57;;;5.60;;
11000;SDS011;5553;48.506;8.870;2022-07-29T12:20:42;6.40;;;5.13;;
11000;SDS011;5553;48.506;8.870;2022-07-29T12:23:10;6.70;;;6.10;;
11000;SDS011;5553;48.506;8.870;2022-07-29T12:25:40;9.17;;;5.50;;
11000;SDS011;5553;48.506;8.870;2022-07-29T12:28:10;5.67;;;5.17;;
11000;SDS011;5553;48.506;8.870;2022-07-29T12:30:44;6.63;;;5.80;;
11000;SDS011;5553;48.506;8.870;2022-07-29T12:33:17;6.57;;;6.07;;
11000;SDS011;5553;48.506;8.870;2022-07-29T12:35:48;7.47;;;6.00;;
11000;SDS011;5553;48.506;8.870;2022-07-29T12:38:19;6.77;;;6.27;;
11000;SDS011;5553;48.506;8.870;2022-07-29T12:40:48;6.23;;;5.80;;
11000;SDS011;5553;48.506;8.870;2022-07-29T12:43:19;6.70;;;6.17;;
11000;SDS011;5553;48.506;8.870;2022-07-29T12:45:51;6.10;;;5.53;;
11000;SDS011;5553;48.506;8.870;2022-07-29T12:48:32;6.37;;;3.33;;
11000;SDS011;5553;48.506;8.870;2022-07-29T12:51:02;5.00;;;3.63;;
11000;SDS011;5553;48.506;8.870;2022-07-29T12:53:32;5.33;;;4.40;;
11000;SDS011;5553;48.506;8.870;2022-07-29T12:56:01;5.00;;;4.60;;
11000;SDS011;5553;48.506;8.870;2022-07-29T12:58:32;6.63;;;5.13;;
11000;SDS011;5553;48.506;8.870;2022-07-29T13:01:05;7.10;;;6.47;;
11000;SDS011;5553;48.506;8.870;2022-07-29T13:03:46;6.33;;;5.83;;
11000;SDS011;5553;48.506;8.870;2022-07-29T13:09:08;6.80;;;6.20;;
11000;SDS011;5553;48.506;8.870;2022-07-29T13:11:39;6.63;;;6.13;;
11000;SDS011;5553;48.506;8.870;2022-07-29T13:14:10;12.33;;;6.90;;
11000;SDS011;5553;48.506;8.870;2022-07-29T13:19:33;6.30;;;5.90;;
11000;SDS011;5553;48.506;8.870;2022-07-29T19:21:22;5.30;;;4.80;;
11000;SDS011;5553;48.506;8.870;2022-07-29T19:23:51;6.40;;;5.60;;
11000;SDS011;5553;48.506;8.870;2022-07-29T19:26:20;6.80;;;4.97;;
11000;SDS011;5553;48.506;8.870;2022-07-29T19:28:49;9.23;;;4.30;;
11000;SDS011;5553;48.506;8.870;2022-07-29T19:31:17;4.93;;;4.20;;
11000;SDS011;5553;48.506;8.870;2022-07-29T19:33:45;5.20;;;4.70;;
11000;SDS011;5553;48.506;8.870;2022-07-29T19:36:14;8.03;;;4.73;;
11000;SDS011;5553;48.506;8.870;2022-07-29T19:38:44;8.10;;;4.27;;
11000;SDS011;5553;48.506;8.870;2022-07-29T19:41:13;4.47;;;3.83;;
11000;SDS011;5553;48.506;8.870;2022-07-29T19:43:41;4.60;;;4.27;;
11000;SDS011;5553;48.506;8.870;2022-07-29T19:46:09;6.90;;;4.20;;
11000;SDS011;5553;48.506;8.870;2022-07-29T19:48:38;5.60;;;4.47;;
11000;SDS011;5553;48.506;8.870;2022-07-29T19:51:06;6.17;;;4.17;;
11000;SDS011;5553;48.506;8.870;2022-07-29T19:53:34;5.30;;;4.20;;
11000;SDS011;5553;48.506;8.870;2022-07-29T19:56:05;7.93;;;4.40;;
11000;SDS011;5553;48.506;8.870;2022-07-29T19:58:34;4.07;;;3.70;;
11000;SDS011;5553;48.506;8.870;2022-07-29T20:01:04;4.20;;;3.80;;
11000;SDS011;5553;48.506;8.870;2022-07-29T20:03:33;6.33;;;4.60;;
11000;SDS011;5553;48.506;8.870;2022-07-29T20:06:01;5.93;;;4.80;;
11000;SDS011;5553;48.506;8.870;2022-07-29T20:08:29;7.70;;;4.17;;
11000;SDS011;5553;48.506;8.870;2022-07-29T20:10:57;5.03;;;4.00;;
11000;SDS011;5553;48.506;8.870;2022-07-29T20:13:29;5.53;;;4.77;;
11000;SDS011;5553;48.506;8.870;2022-07-29T20:15:59;3.83;;;3.53;;
11000;SDS011;5553;48.506;8.870;2022-07-29T20:18:29;4.60;;;4.10;;
11000;SDS011;5553;48.506;8.870;2022-07-29T20:20:57;5.77;;;3.63;;
11000;SDS011;5553;48.506;8.870;2022-07-29T20:23:27;4.30;;;4.00;;
11000;SDS011;5553;48.506;8.870;2022-07-29T20:25:56;3.80;;;3.50;;
11000;SDS011;5553;48.506;8.870;2022-07-29T20:28:24;3.60;;;3.30;;
11000;SDS011;5553;48.506;8.870;2022-07-29T20:30:55;5.80;;;3.80;;
11000;SDS011;5553;48.506;8.870;2022-07-29T20:33:23;5.20;;;3.60;;
11000;SDS011;5553;48.506;8.870;2022-07-29T20:35:51;5.20;;;4.07;;
11000;SDS011;5553;48.506;8.870;2022-07-29T20:38:20;4.93;;;4.50;;
11000;SDS011;5553;48.506;8.870;2022-07-29T20:40:49;7.83;;;3.70;;
11000;SDS011;5553;48.506;8.870;2022-07-29T20:43:19;9.13;;;4.00;;
11000;SDS011;5553;48.506;8.870;2022-07-29T20:45:47;5.47;;;4.00;;
11000;SDS011;5553;48.506;8.870;2022-07-29T20:48:18;4.90;;;3.50;;
11000;SDS011;5553;48.506;8.870;2022-07-29T20:50:47;5.10;;;4.00;;
11000;SDS011;5553;48.506;8.870;2022-07-29T20:53:15;5.20;;;4.33;;
11000;SDS011;5553;48.506;8.870;2022-07-29T20:55:44;5.57;;;4.07;;
11000;SDS011;5553;48.506;8.870;2022-07-29T20:58:12;4.70;;;4.23;;
11000;SDS011;5553;48.506;8.870;2022-07-29T21:00:41;3.63;;;3.33;;
11000;SDS011;5553;48.506;8.870;2022-07-29T21:03:09;5.97;;;3.67;;
11000;SDS011;5553;48.506;8.870;2022-07-29T21:05:40;6.30;;;3.80;;
11000;SDS011;5553;48.506;8.870;2022-07-29T21:08:09;4.33;;;3.50;;
11000;SDS011;5553;48.506;8.870;2022-07-29T21:10:38;3.73;;;3.40;;
11000;SDS011;5553;48.506;8.870;2022-07-29T21:13:06;4.20;;;3.57;;
11000;SDS011;5553;48.506;8.870;2022-07-29T21:15:35;6.70;;;3.90;;
11000;SDS011;5553;48.506;8.870;2022-07-29T21:18:03;3.53;;;3.23;;
11000;SDS011;5553;48.506;8.870;2022-07-29T21:20:42;4.87;;;3.30;;
11000;SDS011;5553;48.506;8.870;2022-07-29T21:23:11;4.33;;;3.70;;
11000;SDS011;5553;48.506;8.870;2022-07-29T21:25:39;5.47;;;3.60;;
11000;SDS011;5553;48.506;8.870;2022-07-29T21:28:07;4.90;;;4.40;;
11000;SDS011;5553;48.506;8.870;2022-07-29T21:30:48;4.70;;;4.30;;